Member area
Imprimable
Achouffe, 19/08/2018, BEL - La Chouffe Marathon
List of reports > 65km - Result
Search: Page: [1]
310 Entries
 
Complains are not accepted anymore. Results are final.
Category
PosNrLicenceNameAgeNATTeamTimeTkmMoy.PlaceNameCity
1.92710006838769DRON Boris30BELBTWIN2:49:432:37 22.981ma1MARBEHAN
2.63810010956233WUYTS Mathijs20BELAQROC PAUWELS-S2:52:052:39 22.661u23BEERZEL
3.60110016461385RICHARDEAU Arnaud25BELCOMITÉ RÉGIONAL2:52:372:40 22.601eliTEMPLOUX
4.64310015776426VAN DER SANDE Rick20BELTEL&CO CYCLING 2:54:372:42 22.342u23HAACHT
5.60510009366039KAISE Julien23BELDRAGOPAINT-NATU2:54:482:42 22.312eliMAZY
6.84410008105544SAEYS Bram30BELTRUST MTB TEAM2:55:092:42 22.272ma1MOORSEL
7.61410016397630DIERCKX Willem31BEL2:56:492:44 22.063ma1TESTELT
8.61610050541529DIERCKX Wouter31BEL2:57:152:44 22.004ma1HERSELT
9.63410081704191KAULARD Mario32DEUSV EINRUHR ERKE2:57:162:44 22.005ma1SIMMERATH
10.62510015075194VAN UUM Lars20NLDTEAM SMART DRY3:00:392:47 21.593u23HARDERWIJK
11.61210061867893DUVIVIER Antoine32BELAMB3:01:012:48 21.556ma1AUBEL
12.63510015071861STEFFENS Markus34DEUTEAM FIREBIKE H3:02:212:49 21.397ma1MONSCHAU
13.87110007092296BÜTZOW Philipp31LUXVELOSFRËNN GUST3:03:592:50 21.208ma1ROESER
14.64110023291296TETTEROO Joost39NLDMBC DE NOORDBIK3:04:202:51 21.169ma1NOORDWIJKERHOUT
15.60710009010270HEMROULLE Johan23BELCOMITE REGIONAL3:04:222:51 21.153eliMELEN
16.86210015071154FLAMEND Pieter35BELMASTER FRIENDS 3:05:142:51 21.0610ma1HASSELT
17.86800024071981DILIEN Wim37BELRAF'S BIKE SHOP3:05:162:52 21.0511ma1VELM
18.83610051199412VAN VLASSELAER Jurgen41BEL3:05:222:52 21.041ma2AS
19.61910015444808PAQUET Francois32BELSDR BIKE3:07:062:53 20.8512ma1COURT ST ETIENNE
20.88610043815385JETENBACH Lukas17DEU3:07:522:54 20.761jun
21.841LEONARD Yannick31BEL100164326893:07:572:54 20.7513ma1WAIMES/WEISMES
22.63110016247480NOPPE Bas43BELHILAIRE XCM TEA3:08:392:55 20.672ma2GITS
23.65210016406219GEERTS Pieter30BELDERBIGUM MTB TE3:08:402:55 20.6714ma1LUMMEN
24.61010015769857BONNEUX Michiel27BELVANOMOBIL MTB C3:09:312:55 20.584eliHOUTHALEN
25.845DELFOSSE Matisse18BEL3:10:142:56 20.502jun
26.60610006015293LUIS Nelson39LUXLITEVILLE-STORE3:10:542:57 20.4315ma1ANGELSBERG
27.65310065238645DE WOLF Kevin35BEL3:11:492:58 20.3316ma1HERSELT
28.672HULEUX Ludovic29FRA3:13:432:59 20.135eliVADENCOURT
29.84910036457331COOLS Yves32BELMOENS CYCLING T3:13:442:59 20.1317ma1HERSELT
30.843VAN DRIESSCHE Nicolas39BEL3:17:323:03 19.7418ma1
31.62310080316889WILMOTTE Guillaume15BEL3:18:383:04 19.641debTINLOT
32.61710016406017GEERSHEUVELS Toon18BELKEBC3:19:073:04 19.593junBOECHOUT
33.60810009243979KIRTZ Pitt24LUXMULLERTHAL CYCL3:19:123:04 19.586eliBERINGERBERG
34.62210026851705BAILLY Stephane48FRAASPTT VTT CHALO3:20:063:05 19.493ma2EPERNAY
35.62910050894567GEERAERTS Tom36BELINDIVIDUEEL3:20:073:05 19.4919ma1AARSCHOT
36.83710011154576VAN DEN DRIESSCHE Lilian20BEL3:20:163:05 19.484u23MOMIGNIES
37.873BESTEL Jordan18FRASEDAN SPRINT CL3:20:233:05 19.464junMOULINS-SAINT-HUBERT
38.64710078153183LAURENT Axel24BELBTWIN RACING TE3:21:053:06 19.407eliARLON
39.64910015070952WILLEMS Jan46BELDE MODDERFOKKER3:21:123:06 19.384ma2SCHELLEBELLE
40.85910065211363DEPONT Yves40BELROTWILD ZAES3:21:403:07 19.345ma2ARDOOIE
41.867VAN IERSEL Dirk27NLDSPONSOR BIKETEA3:21:483:07 19.338eliTILBURG
42.797SLEGERS Ruben26BEL3:21:523:07 19.329eliKASTERLEE
43.855VANLANGENAEKER Paul56BELRAF'S BIKE TEAM3:22:093:07 19.291ma3STEVOORT
44.83110011497615VANDENDRIESSCHE Ibe28BEL3:23:383:08 19.1510eliWAREGEM
45.775DE POORTER Boudewijn50NLDFANATIXC MTB TE3:24:443:09 19.052ma3SINT-OEDENRODE
46.851940922191227DECHAMBRE Remy24BELARDENNE GAUME3:24:503:10 19.0411eliBASTOGNE
47.923GRACES Jérome29BEL3:24:583:10 19.0312eli
48.60310013529258EVRAERT Niels23BEL3:25:053:10 19.0213eliGAVERE
49.90610016417535HERREMANS Rik20BELOFF ROAD CLUB B3:25:433:10 18.965u23GEEL
50.61510077934127RAMPEL Valentin18BELCLUB CRABBE TOI3:28:573:13 18.675junLAHAGE
51.63610048995286BRASSEUR Vincent51BELBLANCS GILETS3:29:013:13 18.663ma3ANDERLECHT
52.806WILLEMS Frans54NLD3:29:073:14 18.654ma3OOSTELBEERS
53.794GRIFNÉE Pierre19BEL3:29:333:14 18.616u23LAMBERMONT
54.865APPELHOF Edo23NLDMCO3:29:333:14 18.6114eliHA LANDERD
55.64610015065696DEDION Dimitri30BELBTWIN RACING TE3:29:413:14 18.6020ma16740
56.830VAN DER MASSEN Carl56BEL3:30:373:15 18.525ma3OPHAIN
57.86410060003574VERJANS Nicolas44BELECW BIKE73:30:383:15 18.526ma2MOURCOURT
58.85410016472806STACHE Alexandre18BEL/3:30:413:15 18.516junGREZ-DOICEAU
59.83510053256216SCHUYTEN Christophe40BEL3:32:023:16 18.397ma2DRIESLINTER
60.735MEYER Thomas24BELBIKERS DE BELLE3:32:053:16 18.3915eliSTAVELOT
61.709VRENKEN Xavier35BELKOM KILLERS3:32:283:17 18.3621ma1AYWAILLE
62.64510053283494MANGUETTE Jérôme34BELGCV3:32:303:17 18.3522ma1VERVIERS
63.63210014252516KNAEPS Jasper21BELOFF ROAD CLUB B3:32:323:17 18.357u23OUD-TURNHOUT
64.61110075917537VANHOUDT Guillaume23BELTEAM 2 RACE3:32:483:17 18.3316eliLONTZEN
65.883PERIN Thierry51FRAKRONOS TRIATHLO3:33:533:18 18.236ma3SAINT MEMMIE
66.879ROOSEN Tom42BEL3:34:043:18 18.228ma2HAMONT-ACHEL
67.61810016348625BAUWENS Aaron18BELVANOMOBIL MTB C3:34:053:18 18.227junEKSAARDE
68.86610060831310WARNOTTE Jordan38BELSPAVTT3:34:333:19 18.1823ma1STAVELOT
69.83900853162375HARBULOT Thierry37FRA3:35:223:19 18.1124ma1RENWEZ
70.799WAUTIER Denis46BELCYCL'HOTTON3:36:183:20 18.039ma2CHAMPLON
71.90310054591681COPUS Nathan17BELRED BIKERS3:36:383:20 18.008junVAUX/SUR/SÛRE
72.83210051020465SCHOONBAERT Kristof41BELTRUST MTB TEAM3:37:103:21 17.9610ma2
73.62410016495741VAN HAEVERMAET Jasper18BELWAASLANDMTBSCHO3:37:253:21 17.949junBELSELE
74.737VAN OOSTEN Casper40NLD3:37:523:22 17.9011ma2WAALRE
75.91610078838752ZWART Pim33NLDMTB NOORDWEST3:38:103:22 17.8825ma1HAARLEM
76.777DE BOCK Sven39BEL/3:38:503:22 17.8226ma1KAPELLEN
77.917CAPOEN Mehdy34BELWTC DE BERGHAZE3:38:503:22 17.8227ma1RENINGELST
78.784VAN DEN BOSCH Patrick55BELUNITED BIKERS D3:38:563:23 17.817ma3DIEST
79.759LEFEBVRE Frederic47FRAASA VTT3:38:573:23 17.8112ma2PARGNY LES REIMS
80.86110048313963VANHOMWEGEN Mark48BELTEAM8S MOUNTAIN3:39:183:23 17.7813ma2SCHEPDAAL
81.84000866741655DELAIRE Quentin27FRA3:40:123:24 17.7117eliNOUZONVILLE
82.760DUMOULIN Kristof38BELDUMOTECH3:41:013:25 17.6528ma1KACHTEM
83.798BAS Wim37BELVAN EYCK SPORTS3:41:533:25 17.5829ma1VLIERZELE
84.695DENTON Stefan40NLDRWV DE SPARTAAN3:42:183:26 17.5414ma2AMERONGEN
85.884MARCHAND Alain51FRA3:42:213:26 17.548ma3SAINT ETIENNE AU TEMPLE
86.814BREVIERE Alexandre45FRA3CTEAM3:42:293:26 17.5315ma2LAMAIN
87.808FGEUENS Katrien39BELBIKE INN HERENT3:43:233:27 17.461damBEVEL
88.786RUIS Erik47NLDTEAM RUIG3:43:543:27 17.4216ma2DRONTEN
89.907BUITENHEK René49NLD3:44:303:28 17.3717ma2'S-GRAVENHAGE
90.62110054651602PAQUET Vincent34BELTEAM SDR BIKE3:45:023:28 17.3330ma1COURT ST ETIENNE
91.838DILORENZO Fiorenzo37BELTEAM DOLTCINI3:45:523:29 17.2731ma1ZOTTEGEM
92.60410016370651CUSSE Corentin25BELXCBH VERDON3:46:093:29 17.2518eliHARVENG
93.64410016434612LIGNIAN Germain29BELRED BIKERS3:46:443:30 17.2019eliBASTOGNE
94.63910003592115FDEROO Mieke46BELTRUST MTB TEAM 3:47:193:30 17.162damRUDDERVOORDE
95.733DETAILLE Francois27BELRUN ADDICTION3:48:363:32 17.0620eliBASTOGNE
96.85810054533784GOOS Patrick56BELFUTURE MTB TEAM3:48:383:32 17.069ma3WERVIK
97.857KLEINLOOG Mark49NLDFANATIXC MOUNTA3:50:163:33 16.9418ma2WASPIK
98.63710054121940BERNARD Alexandre43FRACOMITÉ RÉGIONAL3:50:393:33 16.9119ma2BLANMONT
99.817CLOSSET Christophe34BELLDJ3:51:083:34 16.8732ma1PEPINSTER
100.897HUMBLET Jean-Francois35BEL3:52:153:35 16.7933ma1HILDEN
101.750MARES Patrick36NLD3:53:033:36 16.7434ma1MAASTRICHT
102.758BEAUDEUX Fabrice Georges Emil51FRAASA TINQUEUX3:53:273:36 16.7110ma3TRESLON
103.738FPLASSCHAERT Helena34BEL3:53:423:36 16.693damWAALRE
104.881SARENS Sylvain32BELVTT 3 CANAUX3:54:533:37 16.6035ma1BERNISSART
105.710THOMMES Ben30LUX3:55:593:38 16.5336ma1CANACH
106.770CHUDZIK Serge51BELESTINNES BIKERS3:56:263:39 16.5011ma3LEVAL-TRAHEGNIES
107.922FCAUWENBERGH Katja43BELTOPBIKE3:56:443:39 16.474damOPVELP
108.765DREYER Guillaume26FRA3:56:463:39 16.4721eliDIANE-CAPELLE
109.915DETHIER Antoine30BEL3:57:273:40 16.4337ma1MALMEDY
110.743DIJKSTRA Mark48NLDMTB ARNHEM3:57:443:40 16.4120ma2OOSTERBEEK
111.680JANSSENS Cas16BELRILLAARSE BIKER3:57:503:40 16.402debRILLAAR
112.681JANSSENS Joris48BELRILLAARSE BIKER3:57:513:40 16.4021ma2RILLAAR
113.62810064984627DEKEYSER Andres16BELTEAM BIKESENSAT3:58:063:40 16.383debVELDEGEM
114.926SCHEPERS Tom40BEL3:58:083:40 16.3822ma2
115.700DIDDEN Bart41BELVANOMOBIL MTB C3:58:233:41 16.3623ma2HERSELT
116.65410065240867EVERAERT Glenn31BELVANOMOBIL MTB C3:58:563:41 16.3238ma1NIEUWERKERKEN
117.776VERMEERSCH Gérald39BELPITAU TEAM3:58:593:41 16.3239ma1BRAINE L'ALLEUD
118.675VAN DEN BERGH Jurgen36BEL3:59:183:41 16.3040ma1HALLAAR
119.816BAX Dave34NLDMOESKOPS-AAR BI4:00:063:42 16.2441ma1BLADEL
120.60910036469051FRUMMLER Britta36DEURSV AACHEN4:00:193:42 16.235damAACHEN
121.88010027690450DELIGNY Damien20FRA4:00:203:42 16.238u23
122.905TIMMER Sven40NLD4:01:433:44 16.1424ma2LEIDERDORP
123.920STEPHANY Mark35LUXLES DÉCHAÎNÉS D4:01:503:44 16.1342ma1PETIT NOBRESSART
124.909HERSSENS Jonathan28BEL4:01:573:44 16.1222eliWELLE
125.751HERCOT Pierre-Luc36BEL4:01:583:44 16.1243ma1BAELEN
126.785HAID Jérémy22BEL4:02:083:44 16.119u23HERVE
127.822SCHOLTES Luc37LUXVFGB4:04:233:46 15.9644ma1BROUCH
128.88210081692976CERFONTAINE Jean-Christophe38BELCOMITE REGIONAL4:04:363:46 15.9445ma1CHASTRE
129.736GOURDEAU Julien31FRAFENSCH VTT FAME4:05:293:47 15.8946ma1HAYANGE
130.818ROSEN Basile24BEL4:06:153:48 15.8423eliUCCLE
131.796VAN HOREN Wim51BELMTB LICHT VERZE4:06:413:48 15.8112ma3MALDEN
132.850VAN DE POL Dave44BELKONA LTD TEAM4:06:423:48 15.8125ma2KRANENBURG
133.64810046281411JAN Delancker43BELTRUST MTB TEAM4:07:253:49 15.7626ma2GISTEL
134.64010049941644GUY Van Elsen47BELBIKE TEAM B614:08:123:50 15.7127ma2HAMONT-ACHEL
135.901LÉONARD Gilles27BEL4:09:113:51 15.6524eliHOUFFALIZE
136.902CROONENBERGHS Jo43BELSHORTMTBIKERS4:10:143:51 15.5928ma2EVERBERG
137.763LASSORT Jeff56FRA4:13:413:55 15.3713ma3LOIVRE
138.756ODENTHAL Randy James44NLDWTC DE AMSTEL /4:15:133:56 15.2829ma2AMSTERDAM
139.740BLANKENDAAL Olaf43NLD4:15:153:56 15.2830ma2AMSTERDAM
140.685BOUDIN Frederic46FRA4:16:183:57 15.2231ma2ARRAS
141.899KERZMANN Sébastien35BEL4:17:453:58 15.1347ma1WELKENRAEDT
142.742TRINE Geoffrey28BEL4:17:553:59 15.1225eliMALMEDY
143.699MONDELAERS Yoeri47BELKCT4:18:123:59 15.1132ma2SCHERPENHEUVEL-ZICHEM
144.896DESMET Tim30BEL4:18:393:59 15.0848ma1
145.780MONARD Arthur18BELBOURG-BIKERS4:19:094:00 15.0510junMONTIGNIES-SUR-SAMBRE
146.795GRIFNÉE Antoine21BELTDCH4:19:174:00 15.0410u23LAMBERMONT
147.863RUTS Jonny47BEL4:20:194:01 14.9833ma2MOL
148.918COURCELLES Hubert44BELETM MOUSCRON4:20:494:01 14.9534ma2MOUSCRON
149.919LE FEVRE Frederic44BELETM MOUSCRON4:20:514:01 14.9535ma2MOUSCRON
150.734LEDUR Ludovic29BEL4:20:514:01 14.9526eliMALMEDY
151.928VAN DER GRINTEN Tom37NLD4:20:594:01 14.9449ma1
152.60210006964479GREISCH Yovan28BELG-SKIN FACTORY 4:21:134:02 14.9327eliARLON
153.746DEKELVER Guy43BEL4:21:164:02 14.9336ma2TERVUREN
154.771JELRIK Geurtz36NLD4:21:244:02 14.9250ma1BEMMEL
155.62010077629989VANLANDEGHEM Geert48BELMTBKRUIBEKE4:21:594:02 14.8937ma2KRUIBEKE
156.852HAESEN Bart45BELDEPOLIM4:22:164:03 14.8738ma2HAM
157.869KOLK Jeroen45NLD4:22:224:03 14.8639ma2'S-GRAVENHAGE
158.800RODERICK Zwijns35NLDSPARTAAN4:22:284:03 14.8651ma1DEN HAAG
159.668DE BRUYN Philip36BELBRELCO CYCLING 4:22:374:03 14.8552ma1BORNEM
160.723DEMETS Michael29BEL4:22:414:03 14.8528eliST PIETERS LEEUW
161.877GARROY Raphael41BEL4:22:574:03 14.8340ma2NANDRIN
162.878FRANÇOIS Jean-Michel48BEL4:22:594:03 14.8341ma2VILLERS-LE-TEMPLE
163.815BUELENS Johan60BELTOPBIKE4:23:104:03 14.8214ma3ROTSELAAR
164.61310049033985HAUGLUSTAINE Pierre35BELBIKE DOCTOR4:23:204:04 14.8153ma1STEMBERT
165.764ABBINK Arno51NLD4:24:084:04 14.7715ma3DEN HAAG
166.779VERHULST Erik50BEL4:24:564:05 14.7216ma3KRUIBEKE
167.781GILLIG Daniel38LUXUC MONDORF4:27:024:07 14.6154ma1MERSCH
168.731LAUWERS Dries41BEL4:28:124:08 14.5442ma2ROESELARE
169.767FALLISON Lotte21BEL4BIKES LINT4:29:274:09 14.476damOLEN
170.768LUYTEN Sam31BEL4BIKES LINT4:29:274:09 14.4755ma1OLEN
171.793VAN ERP Xavier25BELCC BELLEFONTAIN4:29:354:09 14.4729eliETALLE
172.894LINGIER Pieter30BEL4:29:454:09 14.4656ma1
173.921LATINNE Ronnie30BEL4:30:344:10 14.4157ma1WANZE
174.787DE CRAECKER Sven33BEL4:33:294:13 14.2658ma1LAARNE
175.848ORY Jessy41FRA4:34:254:14 14.2143ma2HARBONNIERES
176.898MALDAGUE Laurent49BEL4:34:414:14 14.2044ma2SART-DAMES-AVELINES
177.669SWINGEDOUW Florent30FRA4:35:064:14 14.1859ma1GARCELLES SECQUEVILLE
178.823VERHULST Johan41BEL'T SCHEEFWIEL4:35:294:15 14.1645ma2KRUIBEKE
179.701MEURS Davy37BEL4:37:224:17 14.0660ma1LOMMEL
180.910VASS??? Mark39NLD4:38:374:18 14.0061ma1
181.712PERDAENS Owen15BEL4:38:454:18 13.994debGALMAARDEN
182.789VOLDERS Dieter32BEL4:39:164:18 13.9762ma1SINT-TRUIDEN
183.657MAZE Lionel30FRACLUB ALPIN COLM4:39:554:19 13.9363ma1MEYENHEIM
184.772VERDONSCHOT Robert43NLDFANATIXC MTB TE4:40:174:19 13.9146ma2SON
185.790FVAN ROMPAY Elke34BEL4:42:094:21 13.827damHERSELT
186.250POELMAN Wim58BEL4:43:044:22 13.7817ma3KALKEN
187.705GLORIUS Freek39NLDFANATIXC MTB4:44:274:23 13.7164ma1SINT-OEDENRODE
188.687MOTTE Koen41BELSELLA RONDA TEA4:44:514:23 13.6947ma2OUDENAARDE
189.720DERENNE Xavier27BEL4:45:044:24 13.6830eliDURBUY
190.722STEVENNE Gilles46BEL4:45:064:24 13.6848ma2MUSSON
191.676LUXQUE Christophe49BEL4:45:094:24 13.6849ma2BOUSSU
192.674T'KINT Frederik28BEL4:47:084:26 13.5831eliGRAAUW
193.888DICKENS Jan36BEL4:47:204:26 13.5765ma1ARENDONK
194.689BOLLEN Christoph36BELCYCLING TEAM L'4:47:424:26 13.5666ma1MEULEBEKE
195.690DESIMPELAERE Andy32BEL4:47:444:26 13.5567ma1MEULEBEKE
196.892BUYSSE David43BEL4:48:344:27 13.5250ma2KLUIZEN
197.885PARCELLIER Didier40FRA5063414:49:004:27 13.4951ma2SAINT MEMMIE
198.820CRESPEIGNE Romain26BEL4:49:534:28 13.4532eliARLON
199.704KOENIG Tom30LUX4:51:254:29 13.3868ma1NIEDERPALLEN
200.810EGGENHUIZEN Menno38NLD4:51:354:30 13.3869ma1NIJMEGEN
201.811ROSET Bas39NLD4:51:354:30 13.3870ma1NIJMEGEN
202.925HENIN Geoffrey31BEL4:53:254:31 13.2971ma1HUY
203.895BRACONNIER Antoine26BEL4:55:064:33 13.2233eliAUBANGE
204.834BOOM Domeniek43BEL4:55:184:33 13.2152ma2LOMMEL
205.911DESMET Didier47BEL4:55:204:33 13.2153ma2OOIGEM
206.912MALAISE JohanBEL4:55:354:33 13.191xxx
207.819TIELENS Philippe32BEL4:56:114:34 13.1772ma1DIEST
208.666PEETERS Gunther48BELMTB KRUIBEKE4:57:154:35 13.1254ma2KRUIBEKE
209.826VERCAUTEREN Nils33BELT SCHEEF WIEL4:57:314:35 13.1173ma1RUPELMONDE
210.874VERDOORENT Dimitri38BEL4:57:324:35 13.1174ma1KRUIBEKE
211.807VERCAUTEREN Diego39BELTSCHEEFWIEL4:58:144:36 13.0875ma1BAZEL
212.707LAMBORAY Pierre38BEL4:58:274:36 13.0776ma1WALTZING
213.774VAN DER SANDEN Arnoud35NLDFANATIXC4:58:484:36 13.0577ma1'S-HERTOGENBOSCH
214.876BOM Bart37NLD4:59:044:37 13.0478ma1OUD-BEIJERLAND
215.893GOOSSENS Frederik45BEL5:00:414:38 12.9755ma2
216.924L’HOEST Ludo37BEL5:02:064:39 12.9179ma1FUMAL
217.769OETELAAR Peter54NLD5:06:144:43 12.7418ma3DONGEN
218.63010082853340WAGNEUR David54BELCAMMAERTS5:06:544:44 12.7119ma3GESVES
219.678MARTELE Kris46BEL5:07:274:44 12.6956ma2OOSTENDE
220.748SMITH Christopher45GBRSHERWOOD PINES 5:10:074:47 12.5857ma2NG23 7AR NOTTINGHAM
221.744VAN ENDERT Roel35BEL5:13:344:50 12.4480ma1LOMMEL
222.686ERIC Floryn52BEL5:14:314:51 12.4020ma3MAASMECHELEN
223.684REYNDERS Marc53BEL5:14:444:51 12.3921ma3OPGLABBEEK
224.679REYNDERS Rudi54BEL5:14:594:51 12.3822ma3MAASMECHELEN
225.812CARELSBERGH Bart47BELMTB KRUIBEKE5:15:424:52 12.3558ma2RUPELMONDE
226.90010077621101DILISSEN Danny44BELDEPOLIM5:16:384:53 12.3259ma2OVERPELT
227.711DHAENENS Marijn26BEL5:16:534:53 12.3134eliSTADEN
228.726BOGAERT Alexander26BEL5:19:464:56 12.2035eliSTADEN
229.667RUISSEN Erik40NLD5:22:154:58 12.1060ma2ZWOLLE
230.913GISBERGEN Hugo48NLD5:23:464:59 12.0561ma2MOERGESTEL
231.718VANDAMME Bas28BELABSTRAKT CYCLIN5:24:165:00 12.0336eliLEUVEN
232.714LAMBRECHT Stijn27BEL5:26:275:02 11.9537eliROESELARE
233.889ARTIGES Claude36BEL5:26:435:02 11.9481ma1RIXENSART
234.792VAN DE VREDE Laurent33NLD5:26:455:02 11.9482ma1GOES
235.890DENDOOVEN Gregory37BEL5:26:465:02 11.9483ma1GRIMBERGEN
236.791LAVOOIJ Joop25NLD5:26:475:02 11.9438eliGOES
237.691V GOOL Paul48NLDVAN AAKEN5:27:225:03 11.9162ma2OOSTELBEERS
238.692VAN AAKEN Jan41NLDTEAM VAN AAKEN5:27:235:03 11.9163ma2OIRSCHOT
239.693WILLEMS Jos46NLDVAN AAKEN5:27:275:03 11.9164ma2MIDDELBEERS
240.663KUIKEN Martijn43NLD5:28:325:04 11.8765ma2HOOFDDORP
241.782DIDDEN Steve37BEL5:29:105:04 11.8584ma1AARSCHOT
242.761REENAERS Kris37BEL5:29:125:04 11.8585ma1ZICHEM
243.762PAUWELS Domien30BEL5:29:135:04 11.8586ma1AARSCHOT
244.891SCHROEDER Fabian40BEL5:31:005:06 11.7866ma2RIXENSART
245.708BLIJLEVEN Ed45NLD5:31:145:06 11.7767ma2EDE
246.84708093587025FDULAC Cindy36FRA5:32:575:08 11.718damCONTALMAISON
247.730VERYSER Bart28BEL5:33:445:09 11.6939eliMOORSLEDE
248.728VAN ISACKER Pieter32BELSTADENSE MTB'ER5:35:565:11 11.6187ma1LICHTERVELDE
249.853FWELLEKENS Elisabeth30BEL5:35:585:11 11.619damOUDENAARDE
250.682RICOCÉ Virgile41FRABLACK CATS TEAM5:35:595:11 11.6168ma2BONDUES
251.683FFOGLIA Amorine31FRABLACK CATS TEAM5:35:595:11 11.6110damMARCQ EN BAROEUL
252.757FCOOLS Nele40BELINDIVIDUEEL5:37:015:12 11.5711damROESELARE
253.875CLAEYS Luc52BEL5:37:175:12 11.5623ma3TORHOUT
254.813KRISTOF Vercruysse45BEL5:37:185:12 11.5669ma2LEDEGEM
255.721BATIZE Jonathan26FRAFENSCH VTT FAME5:38:245:13 11.5340eliNILVANGE
256.860DE SMEDT Luc48BEL5:39:175:14 11.4970ma2LONDERZEEL
257.805HENNEVANGER Mark28NLD5:39:275:14 11.4941eliWIJDENES
258.801HEIN Dubaere49BEL5:40:115:15 11.4671ma2LENDELEDE
259.661FMONNIER PERROT Chantal52FRA5:40:275:15 11.4612damDAMPIERRE LES BOIS
260.872ARENS Pierre31BEL5:40:515:15 11.4488ma1RECHT
261.65100726149227LORENT Bruno18BELRSV ST VITH5:41:355:16 11.4211junST VITH
262.908TISSINK Ad56NLDSPARTAAN5:41:365:16 11.4224ma3DEN HAAG
263.788ARIMONT Andreas35BEL5:41:495:16 11.4189ma1ST. VITH
264.825CLYMANS Kevin32BEL5:41:555:16 11.4190ma1NINOVE
265.745GOMMERS Geert50BEL5:43:085:17 11.3725ma3HERNE
266.706SORGELOOS Lodewijck44BEL5:43:105:17 11.3772ma2VOLLEZELE
267.802PIET Lammertyn51BEL5:43:315:18 11.3526ma3LENDELEDE
268.803KOEN Demets48BEL5:43:315:18 11.3573ma2LENDELEDE
269.755DEFFAY Sebastien27FRASCOTT 515:43:505:18 11.3442eliCHALONS EN CHAMPAGNE
270.833FVAN LINGEN Nynke41NLDMTB LICHT VERZE5:44:075:18 11.3313damNIJMEGEN
271.754ZAIMECHE Anthony40FRASCOTT 515:44:165:18 11.3374ma2OMEY
272.824DE VILLE AndyBEL5:44:265:18 11.322xxxAAIGEM
273.929VAN ROMPUY Johan Jan40BEL5:47:375:21 11.2275ma2MECHELEN
274.698BARON Ludovic45FRA5:50:425:24 11.1276ma2MAUBEUGE
275.703VERVAET Sander26BEL5:51:325:25 11.0943eliWACHTEBEKE
276.741LOWIE De Groote21BEL5:55:575:29 10.9611u23OUDENAARDE
277.729DEVOLDER Jan34BEL6:00:175:33 10.8391ma1MEULEBEKE
278.664GUARINO Jean-Michel44BEL6:10:385:43 10.5277ma2FEXHE-LE-HAUT-CLOCHER
279.747FSMITH Nicola39GBRSHERWOOD PINES 6:10:565:43 10.5114damNOTTINGHAM
280.930DEKKERS Chris39NLD6:18:005:49 10.3292ma1RIJEN
281.739FRACHAEL DAY Rachael44GBR6:20:545:52 10.2415damLINCOLN
282.658ROTTIERS Jochen24BEL6:32:296:03 9.9444eliADINKERKE
283.804MEERSMAN Stijn36BELT SCHEEFWIEL6:34:526:05 9.8893ma1RUPMONDE
284.727DESERT Luc52BEL6:59:406:28 9.2927ma3SPA
DSQ62610022701519VAN UUM Niels18NLDTEAM REBEL3:06:42junHARDERWIJK
DSQ732FLIGTHART Ineke40NLDLSV INVICTUS3:15:38damGRONINGEN
DSQ914FMOL Sanne35NLDEDOSPORTS3:29:43damMAASTRICHT
DSQ827GOUDSBLOM Jurrien48NLD3:52:12ma2HEERHUGOWAARD
DSQ766SCHONEWILLE Erik42NLD4:14:02ma2ELIM
DSQ662RUDIE De Vries46NLD4:29:13ma2HEEMSTEDE
DSQ887VANPOOL Jasper30BEL4:42:07ma1
DSQ809DE HAAN Wibo42NLD4:53:46ma2ROZENBURG
DSQ778FVAN HOEYLANDT Katelijn48BEL5:15:51damKRUIBEKE
DSQ717DE GRAAUW Piet47NLD5:34:31ma2WASPIK
DSQ719JOHN Zijlmans46NLD5:34:46ma2WASPIK
DSQ725BOCKLANDT Tony55BEL5:55:37ma3KRUISHOUTEM
DNF63310015777234ANTHUENIS Yenzy20BELDEBO BIKES OLYMu23DAKNAM
DNF870BLOEM Armand49NLDma2VOORBURG
DNF656CLAESSENS Kenneth35BELma1TURNHOUT
DNF846KELLENAERS Ron46NLDma2HORST
DNF84210072981669KEUPPENS Geert54BELMOUNTAINFIGHTERma3HEIST OP DEN BERG
DNF688LECLERCQ Nicolas31FRAma1FOLEMBRAY
DNF724MEIRTE Slappen36BELma1OLSENE
DNF9001NR 9001 XXXxxx
DNF659ROTTIERS Peter47BELDE DUNEKEUNTJESma2KOKSIJDE
DNF716RYCKBOSCH Tom33BELma1WACHTEBEKE
DNF713VANCAEYSEELE Sibrecht28BELeliGENT
DNF856VONK Mark47NLDFANATIXCma2MG WAALWIJK
DNF702WATERREUS Eugene41NLDma2OIRSCHOT
DNF65010078159853XHENSEVAL Michel52BELKTM HOUFFALIZEma3FLÉMALLE
DNF: did not finish; DSQ: disqualified; Speed in km/h
Page: [1]